sensor_id;sensor_type;location;lat;lon;timestamp;pressure;altitude;pressure_sealevel;temperature;humidity
30730;BME280;17476;48.458;7.928;2022-12-20T00:01:08;100498.94;;;3.67;100.00
30730;BME280;17476;48.458;7.928;2022-12-20T00:03:34;100498.72;;;3.70;100.00
30730;BME280;17476;48.458;7.928;2022-12-20T00:06:00;100491.59;;;3.74;100.00
30730;BME280;17476;48.458;7.928;2022-12-20T00:08:25;100481.94;;;3.76;100.00
30730;BME280;17476;48.458;7.928;2022-12-20T00:10:51;100470.78;;;3.75;100.00
30730;BME280;17476;48.458;7.928;2022-12-20T00:13:17;100479.66;;;3.71;100.00
30730;BME280;17476;48.458;7.928;2022-12-20T00:15:43;100477.69;;;3.88;100.00
30730;BME280;17476;48.458;7.928;2022-12-20T00:18:09;100466.72;;;3.84;100.00
30730;BME280;17476;48.458;7.928;2022-12-20T00:20:35;100476.34;;;3.82;100.00
30730;BME280;17476;48.458;7.928;2022-12-20T00:23:01;100476.78;;;3.76;100.00
30730;BME280;17476;48.458;7.928;2022-12-20T00:25:28;100476.88;;;3.74;100.00
30730;BME280;17476;48.458;7.928;2022-12-20T00:27:53;100470.66;;;3.77;100.00
30730;BME280;17476;48.458;7.928;2022-12-20T00:30:19;100469.13;;;3.74;100.00
30730;BME280;17476;48.458;7.928;2022-12-20T00:32:46;100463.31;;;3.71;100.00
30730;BME280;17476;48.458;7.928;2022-12-20T00:35:12;100460.53;;;3.87;100.00
30730;BME280;17476;48.458;7.928;2022-12-20T00:37:38;100457.53;;;3.80;100.00
30730;BME280;17476;48.458;7.928;2022-12-20T00:40:05;100452.53;;;3.90;100.00
30730;BME280;17476;48.458;7.928;2022-12-20T00:42:31;100455.75;;;3.93;100.00
30730;BME280;17476;48.458;7.928;2022-12-20T00:44:57;100461.78;;;4.05;100.00
30730;BME280;17476;48.458;7.928;2022-12-20T00:47:23;100473.91;;;4.04;100.00
30730;BME280;17476;48.458;7.928;2022-12-20T00:49:49;100472.06;;;4.06;100.00
30730;BME280;17476;48.458;7.928;2022-12-20T00:52:15;100474.84;;;4.03;100.00
30730;BME280;17476;48.458;7.928;2022-12-20T00:54:41;100464.31;;;3.94;100.00
30730;BME280;17476;48.458;7.928;2022-12-20T00:57:06;100466.38;;;4.01;100.00
30730;BME280;17476;48.458;7.928;2022-12-20T00:59:33;100473.69;;;4.07;100.00
30730;BME280;17476;48.458;7.928;2022-12-20T01:01:59;100463.94;;;4.11;100.00
30730;BME280;17476;48.458;7.928;2022-12-20T01:04:25;100461.78;;;4.05;100.00
30730;BME280;17476;48.458;7.928;2022-12-20T01:06:50;100471.19;;;4.06;100.00
30730;BME280;17476;48.458;7.928;2022-12-20T01:09:16;100466.69;;;3.97;100.00
30730;BME280;17476;48.458;7.928;2022-12-20T01:11:42;100449.41;;;3.97;100.00
30730;BME280;17476;48.458;7.928;2022-12-20T01:14:14;100447.50;;;3.99;100.00
30730;BME280;17476;48.458;7.928;2022-12-20T01:16:43;100447.19;;;4.04;100.00
30730;BME280;17476;48.458;7.928;2022-12-20T01:19:14;100440.94;;;3.95;100.00
30730;BME280;17476;48.458;7.928;2022-12-20T01:21:41;100440.81;;;3.97;100.00
30730;BME280;17476;48.458;7.928;2022-12-20T01:24:15;100444.44;;;3.94;100.00
30730;BME280;17476;48.458;7.928;2022-12-20T01:26:42;100444.59;;;4.04;100.00
30730;BME280;17476;48.458;7.928;2022-12-20T01:29:08;100441.91;;;4.05;100.00
30730;BME280;17476;48.458;7.928;2022-12-20T01:31:34;100446.53;;;4.13;100.00
30730;BME280;17476;48.458;7.928;2022-12-20T01:34:00;100439.16;;;4.20;100.00
30730;BME280;17476;48.458;7.928;2022-12-20T01:36:30;100440.75;;;4.33;100.00
30730;BME280;17476;48.458;7.928;2022-12-20T01:39:06;100448.44;;;4.35;100.00
30730;BME280;17476;48.458;7.928;2022-12-20T01:41:35;100452.44;;;4.39;100.00
30730;BME280;17476;48.458;7.928;2022-12-20T01:46:44;100440.88;;;4.32;100.00
30730;BME280;17476;48.458;7.928;2022-12-20T01:49:22;100435.03;;;4.17;100.00
30730;BME280;17476;48.458;7.928;2022-12-20T01:52:03;100426.94;;;4.22;100.00
30730;BME280;17476;48.458;7.928;2022-12-20T01:54:47;100428.34;;;4.26;100.00
30730;BME280;17476;48.458;7.928;2022-12-20T01:57:26;100432.25;;;4.20;100.00
30730;BME280;17476;48.458;7.928;2022-12-20T01:59:55;100435.03;;;4.17;100.00
30730;BME280;17476;48.458;7.928;2022-12-20T02:02:22;100436.41;;;4.10;100.00
30730;BME280;17476;48.458;7.928;2022-12-20T02:04:49;100431.47;;;4.07;100.00
30730;BME280;17476;48.458;7.928;2022-12-20T02:07:23;100421.81;;;4.09;100.00
30730;BME280;17476;48.458;7.928;2022-12-20T02:09:49;100417.84;;;4.16;100.00
30730;BME280;17476;48.458;7.928;2022-12-20T02:12:20;100418.69;;;4.17;100.00
30730;BME280;17476;48.458;7.928;2022-12-20T02:15:15;100403.00;;;4.07;100.00
30730;BME280;17476;48.458;7.928;2022-12-20T02:20:29;100379.84;;;4.17;100.00
30730;BME280;17476;48.458;7.928;2022-12-20T02:29:22;100388.38;;;4.06;100.00
30730;BME280;17476;48.458;7.928;2022-12-20T02:32:25;100390.38;;;4.02;100.00
30730;BME280;17476;48.458;7.928;2022-12-20T02:34:53;100400.75;;;4.02;100.00
30730;BME280;17476;48.458;7.928;2022-12-20T02:37:19;100395.38;;;3.93;100.00
30730;BME280;17476;48.458;7.928;2022-12-20T02:39:45;100400.13;;;3.99;100.00
30730;BME280;17476;48.458;7.928;2022-12-20T02:42:15;100397.75;;;3.96;100.00
30730;BME280;17476;48.458;7.928;2022-12-20T02:44:53;100387.28;;;3.97;100.00
30730;BME280;17476;48.458;7.928;2022-12-20T02:47:47;100389.28;;;3.94;100.00
30730;BME280;17476;48.458;7.928;2022-12-20T02:50:20;100397.66;;;3.97;100.00
30730;BME280;17476;48.458;7.928;2022-12-20T02:52:48;100398.81;;;3.93;100.00
30730;BME280;17476;48.458;7.928;2022-12-20T02:55:16;100389.28;;;3.94;100.00
30730;BME280;17476;48.458;7.928;2022-12-20T02:57:57;100391.16;;;3.92;100.00
30730;BME280;17476;48.458;7.928;2022-12-20T03:00:25;100387.53;;;3.94;100.00
30730;BME280;17476;48.458;7.928;2022-12-20T03:02:54;100377.28;;;3.93;100.00
30730;BME280;17476;48.458;7.928;2022-12-20T03:05:45;100373.16;;;3.90;100.00
30730;BME280;17476;48.458;7.928;2022-12-20T03:08:12;100376.56;;;3.91;100.00
30730;BME280;17476;48.458;7.928;2022-12-20T03:10:38;100380.25;;;3.99;100.00
30730;BME280;17476;48.458;7.928;2022-12-20T03:13:04;100376.81;;;3.99;100.00
30730;BME280;17476;48.458;7.928;2022-12-20T03:15:30;100365.56;;;4.00;100.00
30730;BME280;17476;48.458;7.928;2022-12-20T03:17:56;100358.94;;;3.96;100.00
30730;BME280;17476;48.458;7.928;2022-12-20T03:20:22;100355.66;;;3.94;100.00
30730;BME280;17476;48.458;7.928;2022-12-20T03:22:47;100355.88;;;3.91;100.00
30730;BME280;17476;48.458;7.928;2022-12-20T03:25:13;100350.56;;;3.92;100.00
30730;BME280;17476;48.458;7.928;2022-12-20T03:27:39;100346.28;;;4.04;100.00
30730;BME280;17476;48.458;7.928;2022-12-20T03:30:06;100347.72;;;4.08;100.00
30730;BME280;17476;48.458;7.928;2022-12-20T03:32:32;100337.84;;;4.13;100.00
30730;BME280;17476;48.458;7.928;2022-12-20T03:34:58;100344.56;;;4.16;100.00
30730;BME280;17476;48.458;7.928;2022-12-20T03:37:24;100345.59;;;4.13;100.00
30730;BME280;17476;48.458;7.928;2022-12-20T03:39:50;100356.88;;;4.12;100.00
30730;BME280;17476;48.458;7.928;2022-12-20T03:42:15;100349.47;;;4.07;100.00
30730;BME280;17476;48.458;7.928;2022-12-20T03:44:41;100349.13;;;4.12;100.00
30730;BME280;17476;48.458;7.928;2022-12-20T03:47:07;100345.00;;;4.09;100.00
30730;BME280;17476;48.458;7.928;2022-12-20T03:49:36;100346.28;;;4.04;100.00
30730;BME280;17476;48.458;7.928;2022-12-20T03:52:02;100350.63;;;4.03;100.00
30730;BME280;17476;48.458;7.928;2022-12-20T03:54:28;100349.69;;;4.04;100.00
30730;BME280;17476;48.458;7.928;2022-12-20T03:56:53;100347.84;;;4.06;100.00
30730;BME280;17476;48.458;7.928;2022-12-20T03:59:19;100338.31;;;4.07;100.00
30730;BME280;17476;48.458;7.928;2022-12-20T04:01:45;100342.53;;;4.08;100.00
30730;BME280;17476;48.458;7.928;2022-12-20T04:04:13;100336.31;;;4.10;100.00
30730;BME280;17476;48.458;7.928;2022-12-20T04:06:40;100337.94;;;4.11;100.00
30730;BME280;17476;48.458;7.928;2022-12-20T04:09:06;100340.53;;;4.11;100.00
30730;BME280;17476;48.458;7.928;2022-12-20T04:11:32;100338.69;;;4.14;100.00
30730;BME280;17476;48.458;7.928;2022-12-20T04:13:58;100329.84;;;4.16;100.00
30730;BME280;17476;48.458;7.928;2022-12-20T04:16:28;100322.22;;;4.15;100.00
30730;BME280;17476;48.458;7.928;2022-12-20T04:18:54;100315.97;;;4.17;100.00
30730;BME280;17476;48.458;7.928;2022-12-20T04:21:31;100313.31;;;4.30;100.00
30730;BME280;17476;48.458;7.928;2022-12-20T04:24:00;100309.19;;;4.27;100.00
30730;BME280;17476;48.458;7.928;2022-12-20T04:26:26;100327.78;;;4.32;100.00
30730;BME280;17476;48.458;7.928;2022-12-20T04:28:52;100330.16;;;4.35;100.00
30730;BME280;17476;48.458;7.928;2022-12-20T04:31:19;100327.78;;;4.32;100.00
30730;BME280;17476;48.458;7.928;2022-12-20T04:33:45;100324.47;;;4.30;100.00
30730;BME280;17476;48.458;7.928;2022-12-20T04:36:12;100317.22;;;4.35;100.00
30730;BME280;17476;48.458;7.928;2022-12-20T04:38:37;100323.91;;;4.38;100.00
30730;BME280;17476;48.458;7.928;2022-12-20T04:41:03;100314.50;;;4.37;100.00
30730;BME280;17476;48.458;7.928;2022-12-20T04:43:29;100317.78;;;4.39;100.00
30730;BME280;17476;48.458;7.928;2022-12-20T04:45:56;100312.84;;;4.36;100.00
30730;BME280;17476;48.458;7.928;2022-12-20T04:48:24;100312.97;;;4.34;100.00
30730;BME280;17476;48.458;7.928;2022-12-20T04:50:54;100320.38;;;4.28;100.00
30730;BME280;17476;48.458;7.928;2022-12-20T04:53:22;100321.66;;;4.33;100.00
30730;BME280;17476;48.458;7.928;2022-12-20T04:56:07;100312.84;;;4.36;100.00
30730;BME280;17476;48.458;7.928;2022-12-20T04:58:33;100311.31;;;4.33;100.00
30730;BME280;17476;48.458;7.928;2022-12-20T05:00:59;100301.78;;;4.34;100.00
30730;BME280;17476;48.458;7.928;2022-12-20T05:03:25;100302.25;;;4.28;100.00
30730;BME280;17476;48.458;7.928;2022-12-20T05:05:52;100308.25;;;4.28;100.00
30730;BME280;17476;48.458;7.928;2022-12-20T05:08:18;100310.84;;;4.28;100.00
30730;BME280;17476;48.458;7.928;2022-12-20T05:10:44;100316.34;;;4.24;100.00
30730;BME280;17476;48.458;7.928;2022-12-20T05:13:10;100303.53;;;4.22;100.00
30730;BME280;17476;48.458;7.928;2022-12-20T05:15:36;100307.06;;;4.21;100.00
30730;BME280;17476;48.458;7.928;2022-12-20T05:18:02;100306.22;;;4.21;100.00
30730;BME280;17476;48.458;7.928;2022-12-20T05:20:30;100309.72;;;4.20;100.00
30730;BME280;17476;48.458;7.928;2022-12-20T05:22:56;100315.16;;;4.17;100.00
30730;BME280;17476;48.458;7.928;2022-12-20T05:25:47;100303.97;;;4.16;100.00
30730;BME280;17476;48.458;7.928;2022-12-20T05:28:32;100307.84;;;4.10;100.00
30730;BME280;17476;48.458;7.928;2022-12-20T05:30:59;100300.78;;;4.13;100.00
30730;BME280;17476;48.458;7.928;2022-12-20T05:33:26;100310.44;;;4.10;100.00
30730;BME280;17476;48.458;7.928;2022-12-20T05:35:52;100313.00;;;4.10;100.00
30730;BME280;17476;48.458;7.928;2022-12-20T05:38:18;100316.31;;;4.13;100.00
30730;BME280;17476;48.458;7.928;2022-12-20T05:40:47;100306.69;;;4.15;100.00
30730;BME280;17476;48.458;7.928;2022-12-20T05:43:14;100312.44;;;4.18;100.00
30730;BME280;17476;48.458;7.928;2022-12-20T05:45:45;100311.50;;;4.19;100.00
30730;BME280;17476;48.458;7.928;2022-12-20T05:48:11;100307.06;;;4.21;100.00
30730;BME280;17476;48.458;7.928;2022-12-20T05:50:37;100301.88;;;4.21;100.00
30730;BME280;17476;48.458;7.928;2022-12-20T05:53:03;100302.69;;;4.22;100.00
30730;BME280;17476;48.458;7.928;2022-12-20T05:55:28;100302.69;;;4.22;100.00
30730;BME280;17476;48.458;7.928;2022-12-20T05:57:55;100304.56;;;4.20;100.00
30730;BME280;17476;48.458;7.928;2022-12-20T06:00:21;100314.91;;;4.20;100.00
30730;BME280;17476;48.458;7.928;2022-12-20T06:02:47;100308.22;;;4.17;100.00
30730;BME280;17476;48.458;7.928;2022-12-20T06:05:13;100308.00;;;4.20;100.00
30730;BME280;17476;48.458;7.928;2022-12-20T06:07:39;100308.69;;;4.22;100.00
30730;BME280;17476;48.458;7.928;2022-12-20T06:10:05;100303.53;;;4.22;100.00
30730;BME280;17476;48.458;7.928;2022-12-20T06:12:32;100302.47;;;4.25;100.00
30730;BME280;17476;48.458;7.928;2022-12-20T06:14:59;100300.94;;;4.22;100.00
30730;BME280;17476;48.458;7.928;2022-12-20T06:17:25;100303.53;;;4.22;100.00
30730;BME280;17476;48.458;7.928;2022-12-20T06:19:51;100299.38;;;4.20;100.00
30730;BME280;17476;48.458;7.928;2022-12-20T06:22:17;100290.78;;;4.19;100.00
30730;BME280;17476;48.458;7.928;2022-12-20T06:24:43;100301.06;;;4.21;100.00
30730;BME280;17476;48.458;7.928;2022-12-20T06:27:09;100294.56;;;4.15;100.00
30730;BME280;17476;48.458;7.928;2022-12-20T06:29:36;100301.72;;;4.11;100.00
30730;BME280;17476;48.458;7.928;2022-12-20T06:32:02;100305.03;;;4.14;100.00
30730;BME280;17476;48.458;7.928;2022-12-20T06:34:31;100309.03;;;4.18;100.00
30730;BME280;17476;48.458;7.928;2022-12-20T06:36:57;100309.59;;;4.10;100.00
30730;BME280;17476;48.458;7.928;2022-12-20T06:39:23;100304.44;;;4.10;100.00
30730;BME280;17476;48.458;7.928;2022-12-20T06:41:49;100311.25;;;4.11;100.00
30730;BME280;17476;48.458;7.928;2022-12-20T06:44:14;100310.22;;;4.14;100.00
30730;BME280;17476;48.458;7.928;2022-12-20T06:46:40;100295.88;;;4.21;100.00
30730;BME280;17476;48.458;7.928;2022-12-20T06:49:06;100303.06;;;4.28;100.00
30730;BME280;17476;48.458;7.928;2022-12-20T06:51:32;100301.78;;;4.34;100.00
30730;BME280;17476;48.458;7.928;2022-12-20T06:53:58;100304.03;;;4.38;100.00
30730;BME280;17476;48.458;7.928;2022-12-20T06:56:24;100304.03;;;4.38;100.00
30730;BME280;17476;48.458;7.928;2022-12-20T06:58:50;100303.06;;;4.39;100.00
30730;BME280;17476;48.458;7.928;2022-12-20T07:01:15;100298.38;;;4.45;100.00
30730;BME280;17476;48.458;7.928;2022-12-20T07:03:41;100293.56;;;4.51;100.00
30730;BME280;17476;48.458;7.928;2022-12-20T07:06:07;100287.00;;;4.47;100.00
30730;BME280;17476;48.458;7.928;2022-12-20T07:08:33;100295.47;;;4.49;100.00
30730;BME280;17476;48.458;7.928;2022-12-20T07:11:04;100290.50;;;4.46;100.00
30730;BME280;17476;48.458;7.928;2022-12-20T07:13:31;100286.13;;;4.47;100.00
30730;BME280;17476;48.458;7.928;2022-12-20T07:16:01;100286.38;;;4.44;100.00
30730;BME280;17476;48.458;7.928;2022-12-20T07:18:28;100272.38;;;4.57;100.00
30730;BME280;17476;48.458;7.928;2022-12-20T07:20:59;100272.50;;;4.67;100.00
30730;BME280;17476;48.458;7.928;2022-12-20T07:23:25;100261.09;;;4.70;100.00
30730;BME280;17476;48.458;7.928;2022-12-20T07:25:55;100248.50;;;4.65;100.00
30730;BME280;17476;48.458;7.928;2022-12-20T07:28:22;100245.69;;;4.68;100.00
30730;BME280;17476;48.458;7.928;2022-12-20T07:30:49;100245.44;;;4.71;100.00
30730;BME280;17476;48.458;7.928;2022-12-20T07:33:15;100244.25;;;4.75;100.00
30730;BME280;17476;48.458;7.928;2022-12-20T07:35:41;100239.06;;;4.86;100.00
30730;BME280;17476;48.458;7.928;2022-12-20T07:38:08;100241.97;;;4.93;100.00
30730;BME280;17476;48.458;7.928;2022-12-20T07:40:34;100242.81;;;4.93;100.00
30730;BME280;17476;48.458;7.928;2022-12-20T07:43:00;100251.66;;;4.91;100.00
30730;BME280;17476;48.458;7.928;2022-12-20T07:45:25;100253.91;;;4.84;100.00
30730;BME280;17476;48.458;7.928;2022-12-20T07:47:51;100260.72;;;4.85;100.00
30730;BME280;17476;48.458;7.928;2022-12-20T07:50:17;100253.44;;;4.90;100.00
30730;BME280;17476;48.458;7.928;2022-12-20T07:52:44;100253.78;;;4.97;100.00
30730;BME280;17476;48.458;7.928;2022-12-20T07:55:12;100256.59;;;5.05;100.00
30730;BME280;17476;48.458;7.928;2022-12-20T07:58:03;100252.56;;;5.12;100.00
30730;BME280;17476;48.458;7.928;2022-12-20T08:00:31;100246.47;;;5.02;100.00
30730;BME280;17476;48.458;7.928;2022-12-20T08:03:14;100233.38;;;5.04;100.00
30730;BME280;17476;48.458;7.928;2022-12-20T08:05:47;100224.78;;;5.03;100.00
30730;BME280;17476;48.458;7.928;2022-12-20T08:08:16;100209.81;;;5.07;100.00
30730;BME280;17476;48.458;7.928;2022-12-20T08:10:42;100233.94;;;5.07;100.00
30730;BME280;17476;48.458;7.928;2022-12-20T08:13:09;100240.91;;;5.07;100.00
30730;BME280;17476;48.458;7.928;2022-12-20T08:15:35;100241.03;;;5.16;100.00
30730;BME280;17476;48.458;7.928;2022-12-20T08:18:01;100239.94;;;5.19;100.00
30730;BME280;17476;48.458;7.928;2022-12-20T08:20:28;100218.97;;;5.22;100.00
30730;BME280;17476;48.458;7.928;2022-12-20T08:22:54;100210.81;;;5.27;100.00
30730;BME280;17476;48.458;7.928;2022-12-20T08:25:19;100206.22;;;5.30;100.00
30730;BME280;17476;48.458;7.928;2022-12-20T08:27:46;100209.50;;;5.32;100.00
30730;BME280;17476;48.458;7.928;2022-12-20T08:30:13;100206.69;;;5.35;100.00
30730;BME280;17476;48.458;7.928;2022-12-20T08:32:39;100215.28;;;5.36;100.00
30730;BME280;17476;48.458;7.928;2022-12-20T08:35:05;100218.75;;;5.46;100.00
30730;BME280;17476;48.458;7.928;2022-12-20T08:37:32;100215.47;;;5.44;100.00
30730;BME280;17476;48.458;7.928;2022-12-20T08:39:58;100224.63;;;5.48;100.00
30730;BME280;17476;48.458;7.928;2022-12-20T08:42:26;100212.94;;;5.54;100.00
30730;BME280;17476;48.458;7.928;2022-12-20T08:44:52;100204.81;;;5.58;100.00
30730;BME280;17476;48.458;7.928;2022-12-20T08:47:18;100192.38;;;5.62;100.00
30730;BME280;17476;48.458;7.928;2022-12-20T08:49:43;100198.63;;;5.70;100.00
30730;BME280;17476;48.458;7.928;2022-12-20T08:52:09;100187.66;;;5.88;100.00
30730;BME280;17476;48.458;7.928;2022-12-20T08:54:35;100191.31;;;5.96;100.00
30730;BME280;17476;48.458;7.928;2022-12-20T08:57:01;100193.38;;;6.02;100.00
30730;BME280;17476;48.458;7.928;2022-12-20T08:59:27;100190.41;;;6.07;100.00
30730;BME280;17476;48.458;7.928;2022-12-20T09:01:52;100184.31;;;6.18;100.00
30730;BME280;17476;48.458;7.928;2022-12-20T09:04:20;100175.22;;;6.33;100.00
30730;BME280;17476;48.458;7.928;2022-12-20T09:06:46;100184.41;;;6.37;100.00
30730;BME280;17476;48.458;7.928;2022-12-20T09:09:12;100190.72;;;6.44;100.00
30730;BME280;17476;48.458;7.928;2022-12-20T09:11:38;100194.53;;;6.40;100.00
30730;BME280;17476;48.458;7.928;2022-12-20T09:14:04;100203.66;;;6.35;100.00
30730;BME280;17476;48.458;7.928;2022-12-20T09:16:31;100204.47;;;6.35;100.00
30730;BME280;17476;48.458;7.928;2022-12-20T09:19:00;100216.50;;;6.36;99.81
30730;BME280;17476;48.458;7.928;2022-12-20T09:21:27;100210.56;;;6.45;98.80
30730;BME280;17476;48.458;7.928;2022-12-20T09:23:54;100224.28;;;6.57;98.76
30730;BME280;17476;48.458;7.928;2022-12-20T09:26:22;100229.34;;;6.59;98.30
30730;BME280;17476;48.458;7.928;2022-12-20T09:28:49;100221.72;;;6.67;97.75
30730;BME280;17476;48.458;7.928;2022-12-20T09:31:18;100223.09;;;6.71;97.33
30730;BME280;17476;48.458;7.928;2022-12-20T09:33:45;100221.34;;;6.81;98.16
30730;BME280;17476;48.458;7.928;2022-12-20T09:36:17;100211.09;;;6.89;98.56
30730;BME280;17476;48.458;7.928;2022-12-20T09:38:44;100215.75;;;6.95;98.19
30730;BME280;17476;48.458;7.928;2022-12-20T09:43:56;100200.59;;;7.10;100.00
30730;BME280;17476;48.458;7.928;2022-12-20T09:46:23;100207.63;;;7.19;100.00
30730;BME280;17476;48.458;7.928;2022-12-20T09:48:49;100209.94;;;7.13;97.51
30730;BME280;17476;48.458;7.928;2022-12-20T09:54:36;100217.34;;;7.27;96.30
30730;BME280;17476;48.458;7.928;2022-12-20T09:59:57;100223.34;;;7.37;94.12
30730;BME280;17476;48.458;7.928;2022-12-20T10:02:25;100213.78;;;7.47;95.30
30730;BME280;17476;48.458;7.928;2022-12-20T10:04:52;100204.88;;;7.59;96.06
30730;BME280;17476;48.458;7.928;2022-12-20T10:07:40;100201.16;;;7.72;93.96
30730;BME280;17476;48.458;7.928;2022-12-20T10:10:38;100205.38;;;7.92;94.48
30730;BME280;17476;48.458;7.928;2022-12-20T10:13:46;100193.28;;;8.10;93.77
30730;BME280;17476;48.458;7.928;2022-12-20T10:16:41;100198.91;;;8.06;90.81
30730;BME280;17476;48.458;7.928;2022-12-20T10:22:29;100183.69;;;8.11;90.21
30730;BME280;17476;48.458;7.928;2022-12-20T10:25:19;100171.94;;;8.07;89.99
30730;BME280;17476;48.458;7.928;2022-12-20T10:27:50;100161.78;;;8.04;90.70
30730;BME280;17476;48.458;7.928;2022-12-20T10:30:20;100167.13;;;8.02;91.45
30730;BME280;17476;48.458;7.928;2022-12-20T10:32:50;100163.97;;;7.99;91.43
30730;BME280;17476;48.458;7.928;2022-12-20T10:35:49;100154.97;;;7.93;93.34
30730;BME280;17476;48.458;7.928;2022-12-20T10:38:16;100141.25;;;7.91;94.42
30730;BME280;17476;48.458;7.928;2022-12-20T10:43:21;100123.84;;;7.91;91.94
30730;BME280;17476;48.458;7.928;2022-12-20T10:46:00;100123.97;;;7.90;92.38
30730;BME280;17476;48.458;7.928;2022-12-20T10:48:40;100127.44;;;7.81;93.92
30730;BME280;17476;48.458;7.928;2022-12-20T10:53:36;100124.81;;;7.90;91.86
30730;BME280;17476;48.458;7.928;2022-12-20T10:56:24;100125.72;;;7.99;93.97
30730;BME280;17476;48.458;7.928;2022-12-20T11:01:34;100114.41;;;8.55;94.07
30730;BME280;17476;48.458;7.928;2022-12-20T11:04:20;100105.00;;;8.90;91.90
30730;BME280;17476;48.458;7.928;2022-12-20T11:06:50;100099.56;;;9.01;90.69
30730;BME280;17476;48.458;7.928;2022-12-20T11:09:33;100092.56;;;9.01;89.82
30730;BME280;17476;48.458;7.928;2022-12-20T11:14:26;100080.84;;;8.70;92.79
30730;BME280;17476;48.458;7.928;2022-12-20T11:16:54;100079.41;;;8.58;91.54
30730;BME280;17476;48.458;7.928;2022-12-20T11:25:16;100055.44;;;8.72;89.97
30730;BME280;17476;48.458;7.928;2022-12-20T11:28:13;100062.38;;;8.63;92.17
30730;BME280;17476;48.458;7.928;2022-12-20T11:31:15;100057.22;;;8.71;90.47
30730;BME280;17476;48.458;7.928;2022-12-20T11:34:09;100048.75;;;8.69;91.09
30730;BME280;17476;48.458;7.928;2022-12-20T11:37:08;100064.38;;;8.69;89.20
30730;BME280;17476;48.458;7.928;2022-12-20T11:42:27;100079.13;;;8.79;89.84
30730;BME280;17476;48.458;7.928;2022-12-20T11:48:06;100074.00;;;9.05;92.27
30730;BME280;17476;48.458;7.928;2022-12-20T11:56:15;100053.16;;;9.82;91.71
30730;BME280;17476;48.458;7.928;2022-12-20T11:59:06;100036.53;;;9.92;87.49
30730;BME280;17476;48.458;7.928;2022-12-20T12:05:05;100006.81;;;9.93;88.47
30730;BME280;17476;48.458;7.928;2022-12-20T12:07:34;100006.53;;;9.96;87.85
30730;BME280;17476;48.458;7.928;2022-12-20T12:10:30;100013.66;;;9.85;85.23
30730;BME280;17476;48.458;7.928;2022-12-20T12:13:22;99997.00;;;9.87;85.64
30730;BME280;17476;48.458;7.928;2022-12-20T12:16:18;99971.84;;;9.85;85.78
30730;BME280;17476;48.458;7.928;2022-12-20T12:18:45;99979.69;;;9.85;84.93
30730;BME280;17476;48.458;7.928;2022-12-20T12:21:31;99976.66;;;9.64;86.26
30730;BME280;17476;48.458;7.928;2022-12-20T12:24:31;99972.75;;;9.68;88.13
30730;BME280;17476;48.458;7.928;2022-12-20T12:26:59;99968.22;;;9.70;88.36
30730;BME280;17476;48.458;7.928;2022-12-20T12:29:28;99969.56;;;9.82;87.36
30730;BME280;17476;48.458;7.928;2022-12-20T12:34:58;99984.16;;;10.01;89.24
30730;BME280;17476;48.458;7.928;2022-12-20T12:40:53;99981.44;;;10.19;87.52
30730;BME280;17476;48.458;7.928;2022-12-20T12:43:51;99976.53;;;10.16;84.98
30730;BME280;17476;48.458;7.928;2022-12-20T12:46:27;99966.38;;;10.21;86.42
30730;BME280;17476;48.458;7.928;2022-12-20T12:49:09;99957.91;;;10.11;85.40
30730;BME280;17476;48.458;7.928;2022-12-20T12:51:40;99945.19;;;10.16;84.88
30730;BME280;17476;48.458;7.928;2022-12-20T12:54:20;99945.81;;;10.18;84.17
30730;BME280;17476;48.458;7.928;2022-12-20T12:56:49;99957.91;;;10.11;84.59
30730;BME280;17476;48.458;7.928;2022-12-20T12:59:45;99960.16;;;10.06;84.95
30730;BME280;17476;48.458;7.928;2022-12-20T13:17:52;99919.41;;;9.71;86.90
30730;BME280;17476;48.458;7.928;2022-12-20T13:20:30;99909.31;;;9.76;87.54
30730;BME280;17476;48.458;7.928;2022-12-20T13:33:44;99890.38;;;9.82;87.09
30730;BME280;17476;48.458;7.928;2022-12-20T13:41:46;99866.91;;;9.90;85.50
30730;BME280;17476;48.458;7.928;2022-12-20T13:46:59;99877.81;;;9.85;85.15
30730;BME280;17476;48.458;7.928;2022-12-20T13:49:37;99890.88;;;9.85;84.67
30730;BME280;17476;48.458;7.928;2022-12-20T13:54:45;99888.91;;;9.88;85.20
30730;BME280;17476;48.458;7.928;2022-12-20T13:57:26;99905.28;;;9.90;85.75
30730;BME280;17476;48.458;7.928;2022-12-20T13:59:56;99898.56;;;9.87;85.87
30730;BME280;17476;48.458;7.928;2022-12-20T14:02:32;99890.72;;;9.87;86.37
30730;BME280;17476;48.458;7.928;2022-12-20T14:05:03;99885.00;;;9.83;87.51
30730;BME280;17476;48.458;7.928;2022-12-20T14:07:31;99895.94;;;9.79;87.47
30730;BME280;17476;48.458;7.928;2022-12-20T14:10:02;99890.72;;;9.79;87.23
30730;BME280;17476;48.458;7.928;2022-12-20T14:12:29;99890.50;;;9.64;86.88
30730;BME280;17476;48.458;7.928;2022-12-20T14:14:56;99891.63;;;9.62;87.81
30730;BME280;17476;48.458;7.928;2022-12-20T14:17:32;99888.88;;;9.63;88.00
30730;BME280;17476;48.458;7.928;2022-12-20T14:20:21;99885.59;;;9.61;87.12
30730;BME280;17476;48.458;7.928;2022-12-20T14:23:14;99878.56;;;9.53;87.28
30730;BME280;17476;48.458;7.928;2022-12-20T14:28:41;99883.25;;;9.42;88.79
30730;BME280;17476;48.458;7.928;2022-12-20T14:31:35;99877.00;;;9.35;89.52
30730;BME280;17476;48.458;7.928;2022-12-20T14:34:04;99881.75;;;9.39;87.88
30730;BME280;17476;48.458;7.928;2022-12-20T14:36:33;99880.78;;;9.40;87.95
30730;BME280;17476;48.458;7.928;2022-12-20T14:39:00;99881.94;;;9.38;88.92
30730;BME280;17476;48.458;7.928;2022-12-20T14:41:39;99887.97;;;9.38;87.53
30730;BME280;17476;48.458;7.928;2022-12-20T14:44:21;99884.22;;;9.41;87.99
30730;BME280;17476;48.458;7.928;2022-12-20T14:46:53;99876.69;;;9.29;89.57
30730;BME280;17476;48.458;7.928;2022-12-20T14:49:32;99890.72;;;9.28;89.16
30730;BME280;17476;48.458;7.928;2022-12-20T15:08:19;99891.91;;;9.08;90.38
30730;BME280;17476;48.458;7.928;2022-12-20T15:13:44;99887.50;;;9.09;90.05